createdAt,value
2024-05-09T00:00:06.824Z,45.16
2024-05-09T00:01:06.111Z,45.14
2024-05-09T00:02:06.231Z,45.17
2024-05-09T00:03:06.270Z,45.14
2024-05-09T00:04:06.339Z,45.13
2024-05-09T00:05:06.456Z,45.12
2024-05-09T00:06:06.421Z,45.14
2024-05-09T00:07:06.554Z,45.11
2024-05-09T00:08:06.785Z,45.11
2024-05-09T00:09:06.574Z,45.12
2024-05-09T00:10:11.683Z,45.11
2024-05-09T00:11:07.756Z,45.10
2024-05-09T00:12:06.838Z,45.14
2024-05-09T00:13:07.132Z,45.11
2024-05-09T00:14:06.696Z,45.12
2024-05-09T00:15:06.679Z,45.14
2024-05-09T00:16:06.708Z,45.11
2024-05-09T00:17:06.773Z,45.12
2024-05-09T00:18:07.590Z,45.09
2024-05-09T00:19:06.836Z,45.12
2024-05-09T00:20:14.301Z,45.09
2024-05-09T00:21:07.941Z,45.12
2024-05-09T00:22:06.818Z,45.12
2024-05-09T00:23:07.372Z,45.10
2024-05-09T00:24:06.816Z,45.09
2024-05-09T00:25:06.872Z,45.10
2024-05-09T00:26:06.891Z,45.08
2024-05-09T00:27:07.307Z,45.07
2024-05-09T00:28:06.846Z,45.10
2024-05-09T00:29:07.054Z,45.09
2024-05-09T00:30:07.433Z,45.09
2024-05-09T00:31:07.088Z,45.10
2024-05-09T00:32:07.163Z,45.11
2024-05-09T00:33:08.741Z,45.07
2024-05-09T00:34:07.331Z,45.10
2024-05-09T00:35:07.978Z,45.11
2024-05-09T00:36:07.208Z,45.08
2024-05-09T00:37:07.212Z,45.07
2024-05-09T00:38:07.433Z,45.10
2024-05-09T00:39:07.164Z,45.06
2024-05-09T00:40:09.607Z,45.08
2024-05-09T00:41:08.268Z,45.07
2024-05-09T00:42:07.187Z,45.10
2024-05-09T00:43:07.172Z,45.09
2024-05-09T00:44:07.269Z,45.07
2024-05-09T00:45:07.174Z,45.07
2024-05-09T00:46:07.184Z,45.07
2024-05-09T00:47:07.460Z,45.07
2024-05-09T00:48:08.541Z,45.04
2024-05-09T00:49:07.346Z,45.06
2024-05-09T00:50:12.640Z,45.04
2024-05-09T00:51:08.408Z,45.03
2024-05-09T00:52:07.350Z,45.04
2024-05-09T00:53:07.381Z,45.04
2024-05-09T00:54:07.348Z,45.07
2024-05-09T00:55:07.353Z,45.02
2024-05-09T00:56:07.445Z,45.04
2024-05-09T00:57:07.370Z,45.00
2024-05-09T00:58:07.357Z,45.05
2024-05-09T00:59:07.447Z,45.05
2024-05-09T01:00:15.028Z,45.04
2024-05-09T01:01:08.355Z,45.07
2024-05-09T01:02:07.441Z,45.07
2024-05-09T01:03:08.004Z,45.07
2024-05-09T01:04:07.526Z,45.05
2024-05-09T01:05:07.480Z,45.06
2024-05-09T01:06:07.393Z,45.02
2024-05-09T01:07:07.363Z,45.05
2024-05-09T01:08:07.504Z,45.06
2024-05-09T01:09:07.395Z,45.04
2024-05-09T01:10:13.934Z,45.04
2024-05-09T01:11:08.542Z,45.08
2024-05-09T01:12:07.443Z,45.02
2024-05-09T01:13:07.698Z,45.02
2024-05-09T01:14:07.400Z,45.03
2024-05-09T01:15:07.394Z,45.00
2024-05-09T01:16:07.400Z,45.01
2024-05-09T01:17:07.476Z,45.02
2024-05-09T01:18:07.771Z,44.99
2024-05-09T01:19:07.510Z,44.98
2024-05-09T01:20:10.821Z,44.98
2024-05-09T01:21:08.479Z,45.00
2024-05-09T01:22:07.407Z,44.97
2024-05-09T01:23:07.634Z,44.97
2024-05-09T01:24:07.434Z,44.98
2024-05-09T01:25:07.411Z,44.99
2024-05-09T01:26:07.511Z,44.96
2024-05-09T01:27:07.467Z,44.98
2024-05-09T01:28:07.477Z,44.98
2024-05-09T01:29:07.449Z,44.99
2024-05-09T01:30:09.649Z,44.96
2024-05-09T01:31:08.449Z,45.01
2024-05-09T01:32:07.486Z,44.98
2024-05-09T01:33:09.460Z,44.98
2024-05-09T01:34:07.490Z,44.96
2024-05-09T01:35:07.505Z,45.00
2024-05-09T01:36:07.463Z,44.98
2024-05-09T01:37:07.459Z,44.98
2024-05-09T01:38:07.528Z,44.99
2024-05-09T01:39:07.455Z,44.96
2024-05-09T01:40:12.131Z,44.94
2024-05-09T01:41:08.497Z,44.95
2024-05-09T01:42:07.461Z,44.93
2024-05-09T01:43:07.735Z,44.95
2024-05-09T01:44:07.487Z,44.93
2024-05-09T01:45:07.483Z,44.94
2024-05-09T01:46:07.439Z,44.94
2024-05-09T01:47:07.572Z,44.95
2024-05-09T01:48:07.614Z,44.93
2024-05-09T01:49:07.605Z,44.92
2024-05-09T01:50:10.702Z,44.93
2024-05-09T01:51:07.676Z,44.91
2024-05-09T01:52:07.541Z,44.91
2024-05-09T01:53:07.682Z,44.90
2024-05-09T01:54:07.543Z,44.92
2024-05-09T01:55:07.560Z,44.91
2024-05-09T01:56:07.595Z,44.90
2024-05-09T01:57:07.577Z,44.93
2024-05-09T01:58:07.709Z,44.90
2024-05-09T01:59:07.604Z,44.90
2024-05-09T02:00:08.047Z,44.90
2024-05-09T02:01:07.546Z,44.91
2024-05-09T02:02:07.738Z,44.91
2024-05-09T02:03:07.801Z,44.93
2024-05-09T02:04:07.728Z,44.89
2024-05-09T02:05:07.785Z,44.88
2024-05-09T02:06:07.626Z,44.88
2024-05-09T02:07:07.554Z,44.88
2024-05-09T02:08:07.654Z,44.87
2024-05-09T02:09:07.542Z,44.88
2024-05-09T02:10:13.795Z,44.87
2024-05-09T02:11:08.618Z,44.88
2024-05-09T02:12:07.743Z,44.87
2024-05-09T02:13:07.576Z,44.88
2024-05-09T02:14:07.605Z,44.87
2024-05-09T02:15:07.584Z,44.87
2024-05-09T02:16:07.629Z,44.85
2024-05-09T02:17:07.855Z,44.86
2024-05-09T02:18:07.788Z,44.85
2024-05-09T02:19:07.669Z,44.82
2024-05-09T02:20:10.839Z,44.85
2024-05-09T02:21:08.678Z,44.85
2024-05-09T02:22:07.633Z,44.83
2024-05-09T02:23:07.688Z,44.85
2024-05-09T02:24:07.594Z,44.83
2024-05-09T02:25:07.608Z,44.84
2024-05-09T02:26:07.675Z,44.81
2024-05-09T02:27:07.631Z,44.84
2024-05-09T02:28:07.640Z,44.83
2024-05-09T02:29:07.644Z,44.81
2024-05-09T02:30:18.454Z,44.82
2024-05-09T02:31:08.710Z,44.86
2024-05-09T02:32:07.781Z,44.82
2024-05-09T02:33:08.279Z,44.84
2024-05-09T02:34:07.809Z,44.81
2024-05-09T02:35:07.764Z,44.83
2024-05-09T02:36:07.708Z,44.82
2024-05-09T02:37:09.701Z,44.83
2024-05-09T02:38:07.750Z,44.81
2024-05-09T02:39:07.705Z,44.82
2024-05-09T02:40:11.587Z,44.79
2024-05-09T02:41:08.827Z,44.82
2024-05-09T02:42:07.829Z,44.75
2024-05-09T02:43:08.551Z,44.80
2024-05-09T02:44:07.826Z,44.78
2024-05-09T02:45:07.814Z,44.80
2024-05-09T02:46:07.795Z,44.79
2024-05-09T02:47:07.892Z,44.78
2024-05-09T02:48:07.959Z,44.79
2024-05-09T02:49:07.890Z,44.80
2024-05-09T02:50:08.367Z,44.79
2024-05-09T02:51:07.958Z,44.79
2024-05-09T02:52:08.022Z,44.78
2024-05-09T02:53:08.765Z,44.78
2024-05-09T02:54:08.104Z,44.78
2024-05-09T02:55:08.144Z,44.77
2024-05-09T02:56:08.347Z,44.78
2024-05-09T02:57:08.266Z,44.77
2024-05-09T02:58:08.369Z,44.73
2024-05-09T02:59:08.502Z,44.73
2024-05-09T03:00:15.168Z,44.72
2024-05-09T03:01:09.511Z,44.72
2024-05-09T03:02:08.492Z,44.74
2024-05-09T03:03:09.822Z,44.72
2024-05-09T03:04:08.564Z,44.74
2024-05-09T03:05:08.513Z,44.71
2024-05-09T03:06:08.480Z,44.74
2024-05-09T03:07:08.463Z,44.74
2024-05-09T03:08:08.635Z,44.72
2024-05-09T03:09:08.453Z,44.73
2024-05-09T03:10:18.058Z,44.69
2024-05-09T03:11:09.502Z,44.71
2024-05-09T03:12:08.607Z,44.70
2024-05-09T03:13:08.614Z,44.71
2024-05-09T03:14:08.516Z,44.72
2024-05-09T03:15:08.447Z,44.68
2024-05-09T03:16:08.493Z,44.64
2024-05-09T03:17:08.529Z,44.69
2024-05-09T03:18:08.669Z,44.67
2024-05-09T03:19:08.525Z,44.66
2024-05-09T03:20:17.048Z,44.68
2024-05-09T03:21:09.621Z,44.67
2024-05-09T03:22:08.502Z,44.67
2024-05-09T03:23:09.697Z,44.66
2024-05-09T03:24:08.485Z,44.66
2024-05-09T03:25:08.486Z,44.67
2024-05-09T03:26:08.548Z,44.66
2024-05-09T03:27:08.509Z,44.66
2024-05-09T03:28:08.499Z,44.64
2024-05-09T03:29:08.575Z,44.67
2024-05-09T03:30:09.969Z,44.65
2024-05-09T03:31:08.638Z,44.65
2024-05-09T03:32:08.784Z,44.64
2024-05-09T03:33:09.021Z,44.68
2024-05-09T03:34:08.896Z,44.64
2024-05-09T03:35:08.894Z,44.63
2024-05-09T03:36:11.223Z,44.58
2024-05-09T03:37:09.113Z,44.64
2024-05-09T03:38:09.448Z,44.62
2024-05-09T03:39:09.253Z,44.61
2024-05-09T03:40:14.623Z,44.59
2024-05-09T03:41:10.321Z,44.63
2024-05-09T03:42:09.293Z,44.64
2024-05-09T03:43:09.319Z,44.63
2024-05-09T03:44:09.357Z,44.60
2024-05-09T03:45:09.398Z,44.60
2024-05-09T03:46:09.271Z,44.60
2024-05-09T03:47:09.344Z,44.61
2024-05-09T03:48:09.527Z,44.59
2024-05-09T03:49:09.395Z,44.59
2024-05-09T03:50:18.098Z,44.59
2024-05-09T03:51:10.371Z,44.62
2024-05-09T03:52:09.319Z,44.61
2024-05-09T03:53:09.371Z,44.58
2024-05-09T03:54:09.305Z,44.59
2024-05-09T03:55:09.308Z,44.56
2024-05-09T03:56:09.365Z,44.58
2024-05-09T03:57:09.324Z,44.57
2024-05-09T03:58:09.316Z,44.54
2024-05-09T03:59:09.387Z,44.57
2024-05-09T04:00:17.783Z,44.57
2024-05-09T04:01:10.365Z,44.61
2024-05-09T04:02:09.421Z,44.57
2024-05-09T04:03:11.538Z,44.59
2024-05-09T04:04:09.353Z,44.59
2024-05-09T04:05:09.371Z,44.54
2024-05-09T04:06:09.351Z,44.55
2024-05-09T04:07:09.347Z,44.55
2024-05-09T04:08:09.649Z,44.57
2024-05-09T04:09:09.367Z,44.55
2024-05-09T04:10:16.790Z,44.56
2024-05-09T04:11:10.437Z,44.59
2024-05-09T04:12:09.437Z,44.57
2024-05-09T04:13:09.366Z,44.56
2024-05-09T04:14:09.375Z,44.55
2024-05-09T04:15:12.866Z,44.54
2024-05-09T04:16:09.349Z,44.54
2024-05-09T04:17:09.413Z,44.56
2024-05-09T04:18:09.590Z,44.57
2024-05-09T04:19:09.504Z,44.56
2024-05-09T04:20:12.465Z,44.53
2024-05-09T04:21:10.453Z,44.58
2024-05-09T04:22:09.339Z,44.55
2024-05-09T04:23:09.708Z,44.54
2024-05-09T04:24:09.335Z,44.52
2024-05-09T04:25:09.371Z,44.50
2024-05-09T04:26:09.392Z,44.52
2024-05-09T04:27:09.404Z,44.51
2024-05-09T04:28:09.398Z,44.50
2024-05-09T04:29:09.495Z,44.51
2024-05-09T04:30:15.482Z,44.50
2024-05-09T04:31:10.515Z,44.49
2024-05-09T04:32:10.398Z,44.51
2024-05-09T04:33:17.905Z,44.58
2024-05-09T04:34:17.774Z,44.54
2024-05-09T04:35:17.747Z,44.50
2024-05-09T04:36:17.687Z,44.51
2024-05-09T04:37:17.686Z,44.51
2024-05-09T04:38:17.742Z,44.47
2024-05-09T04:39:17.678Z,44.48
2024-05-09T04:40:27.642Z,44.50
2024-05-09T04:41:18.727Z,44.49
2024-05-09T04:42:17.725Z,44.49
2024-05-09T04:43:17.695Z,44.50
2024-05-09T04:44:17.750Z,44.50
2024-05-09T04:45:17.700Z,44.46
2024-05-09T04:46:17.712Z,44.48
2024-05-09T04:47:17.794Z,44.49
2024-05-09T04:48:17.907Z,44.47
2024-05-09T04:49:17.940Z,44.54
2024-05-09T04:50:29.015Z,44.56
2024-05-09T04:51:18.707Z,44.58
2024-05-09T04:52:17.717Z,44.59
2024-05-09T04:53:18.042Z,44.63
2024-05-09T04:54:29.851Z,44.65
2024-05-09T04:55:18.698Z,44.70
2024-05-09T04:56:17.878Z,44.72
2024-05-09T04:57:17.720Z,44.82
2024-05-09T04:58:17.729Z,44.85
2024-05-09T04:59:17.775Z,44.77
2024-05-09T05:00:25.520Z,44.74
2024-05-09T05:01:18.767Z,44.72
2024-05-09T05:02:17.835Z,44.74
2024-05-09T05:03:18.122Z,44.84
2024-05-09T05:04:17.971Z,44.98
2024-05-09T05:05:17.843Z,45.19
2024-05-09T05:06:17.743Z,45.46
2024-05-09T05:07:17.758Z,45.61
2024-05-09T05:08:18.934Z,45.55
2024-05-09T05:09:17.835Z,45.49
2024-05-09T05:10:25.265Z,45.48
2024-05-09T05:11:18.945Z,45.53
2024-05-09T05:12:17.916Z,45.57
2024-05-09T05:13:18.929Z,45.67
2024-05-09T05:14:17.858Z,45.71
2024-05-09T05:15:17.805Z,45.77
2024-05-09T05:16:17.837Z,45.82
2024-05-09T05:17:17.924Z,45.86
2024-05-09T05:18:18.294Z,45.86
2024-05-09T05:19:17.989Z,45.87
2024-05-09T05:20:27.054Z,45.85
2024-05-09T05:21:19.066Z,45.81
2024-05-09T05:22:17.811Z,45.79
2024-05-09T05:23:17.970Z,45.82
2024-05-09T05:24:17.829Z,45.90
2024-05-09T05:25:17.830Z,45.91
2024-05-09T05:26:17.864Z,45.96
2024-05-09T05:27:17.838Z,45.99
2024-05-09T05:28:17.858Z,46.07
2024-05-09T05:29:20.629Z,46.09
2024-05-09T05:30:24.768Z,46.03
2024-05-09T05:31:18.933Z,46.08
2024-05-09T05:32:18.439Z,46.13
2024-05-09T05:33:17.919Z,46.23
2024-05-09T05:34:17.822Z,46.34
2024-05-09T05:35:17.861Z,46.43
2024-05-09T05:36:17.843Z,46.56
2024-05-09T05:37:17.845Z,46.69
2024-05-09T05:38:18.019Z,46.77
2024-05-09T05:39:17.832Z,46.92
2024-05-09T05:40:27.956Z,47.00
2024-05-09T05:41:18.921Z,47.03
2024-05-09T05:42:17.861Z,47.00
2024-05-09T05:43:17.976Z,47.18
2024-05-09T05:44:17.903Z,47.19
2024-05-09T05:45:17.843Z,47.19
2024-05-09T05:46:17.844Z,47.26
2024-05-09T05:47:17.955Z,47.25
2024-05-09T05:48:18.379Z,47.17
2024-05-09T05:49:17.922Z,47.07
2024-05-09T05:50:24.847Z,47.00
2024-05-09T05:51:19.010Z,47.01
2024-05-09T05:52:17.854Z,47.06
2024-05-09T05:53:17.936Z,47.13
2024-05-09T05:54:17.902Z,47.21
2024-05-09T05:55:17.869Z,47.30
2024-05-09T05:56:17.840Z,47.41
2024-05-09T05:57:17.844Z,47.46
2024-05-09T05:58:17.905Z,47.53
2024-05-09T05:59:17.921Z,47.59
2024-05-09T06:00:28.578Z,47.64
2024-05-09T06:01:18.897Z,47.69
2024-05-09T06:02:18.075Z,47.74
2024-05-09T06:03:17.958Z,47.79
2024-05-09T06:04:17.892Z,47.83
2024-05-09T06:05:17.935Z,47.88
2024-05-09T06:06:17.867Z,47.87
2024-05-09T06:07:17.890Z,47.85
2024-05-09T06:08:17.986Z,47.81
2024-05-09T06:09:17.865Z,47.83
2024-05-09T06:10:25.161Z,47.79
2024-05-09T06:11:18.989Z,47.78
2024-05-09T06:12:18.018Z,47.74
2024-05-09T06:13:17.893Z,47.74
2024-05-09T06:14:17.934Z,47.70
2024-05-09T06:15:17.908Z,47.65
2024-05-09T06:16:17.878Z,47.49
2024-05-09T06:17:18.020Z,47.33
2024-05-09T06:18:18.269Z,47.21
2024-05-09T06:19:17.975Z,47.18
2024-05-09T06:20:23.945Z,47.16
2024-05-09T06:21:19.105Z,47.19
2024-05-09T06:22:17.900Z,47.16
2024-05-09T06:23:18.035Z,47.19
2024-05-09T06:24:17.885Z,47.22
2024-05-09T06:25:17.902Z,47.18
2024-05-09T06:26:18.040Z,47.14
2024-05-09T06:27:17.885Z,47.09
2024-05-09T06:28:17.937Z,47.03
2024-05-09T06:29:17.934Z,47.08
2024-05-09T06:30:25.837Z,47.09
2024-05-09T06:31:18.936Z,47.04
2024-05-09T06:32:17.943Z,46.86
2024-05-09T06:33:18.227Z,46.77
2024-05-09T06:34:18.146Z,46.71
2024-05-09T06:35:17.945Z,46.72
2024-05-09T06:36:17.915Z,46.74
2024-05-09T06:37:17.927Z,46.78
2024-05-09T06:38:17.994Z,46.83
2024-05-09T06:39:17.925Z,46.83
2024-05-09T06:40:25.358Z,46.79
2024-05-09T06:41:19.008Z,46.89
2024-05-09T06:42:17.955Z,46.88
2024-05-09T06:43:19.416Z,46.96
2024-05-09T06:44:17.978Z,46.97
2024-05-09T06:45:17.985Z,46.97
2024-05-09T06:46:17.917Z,46.93
2024-05-09T06:47:18.040Z,46.91
2024-05-09T06:48:18.120Z,46.84
2024-05-09T06:49:18.071Z,46.73
2024-05-09T06:50:23.849Z,46.56
2024-05-09T06:51:19.050Z,46.43
2024-05-09T06:52:17.944Z,46.50
2024-05-09T06:53:18.078Z,46.50
2024-05-09T06:54:17.915Z,46.52
2024-05-09T06:55:17.992Z,46.56
2024-05-09T06:56:17.965Z,46.50
2024-05-09T06:57:17.953Z,46.49
2024-05-09T06:58:18.032Z,46.42
2024-05-09T06:59:17.992Z,46.38
2024-05-09T07:00:26.836Z,46.34
2024-05-09T07:01:19.026Z,46.31
2024-05-09T07:02:18.005Z,46.34
2024-05-09T07:03:19.332Z,46.25
2024-05-09T07:04:18.101Z,46.09
2024-05-09T07:05:18.030Z,45.98
2024-05-09T07:06:18.001Z,45.93
2024-05-09T07:07:17.974Z,45.89
2024-05-09T07:08:18.088Z,45.88
2024-05-09T07:09:17.963Z,45.96
2024-05-09T07:10:25.421Z,46.10
2024-05-09T07:11:19.076Z,46.13
2024-05-09T07:12:18.155Z,46.12
2024-05-09T07:13:18.084Z,46.18
2024-05-09T07:14:18.111Z,46.22
2024-05-09T07:15:17.977Z,46.20
2024-05-09T07:16:17.995Z,46.17
2024-05-09T07:17:18.102Z,46.19
2024-05-09T07:18:19.172Z,46.18
2024-05-09T07:19:18.146Z,46.19
2024-05-09T07:20:23.688Z,46.23
2024-05-09T07:21:19.122Z,46.29
2024-05-09T07:22:17.981Z,46.34
2024-05-09T07:23:18.649Z,46.31
2024-05-09T07:24:18.035Z,46.25
2024-05-09T07:25:17.993Z,46.28
2024-05-09T07:26:18.130Z,46.32
2024-05-09T07:27:17.995Z,46.35
2024-05-09T07:28:18.160Z,46.44
2024-05-09T07:29:18.072Z,46.55
2024-05-09T07:30:23.780Z,46.60
2024-05-09T07:31:18.989Z,46.66
2024-05-09T07:32:18.090Z,46.79
2024-05-09T07:33:18.367Z,46.87
2024-05-09T07:34:18.120Z,46.97
2024-05-09T07:35:18.088Z,47.02
2024-05-09T07:36:18.023Z,47.11
2024-05-09T07:37:18.005Z,47.18
2024-05-09T07:38:18.110Z,47.24
2024-05-09T07:39:17.995Z,47.31
2024-05-09T07:40:28.399Z,47.40
2024-05-09T07:41:19.126Z,47.38
2024-05-09T07:42:18.070Z,47.39
2024-05-09T07:43:18.102Z,47.41
2024-05-09T07:44:18.128Z,47.49
2024-05-09T07:47:14.369Z,47.49
2024-05-09T07:48:29.069Z,47.45
2024-05-09T07:51:31.310Z,47.53
2024-05-09T07:53:38.321Z,47.58
2024-05-09T07:54:19.183Z,47.60
2024-05-09T07:55:18.269Z,47.58
2024-05-09T07:56:18.930Z,47.61
2024-05-09T07:57:18.169Z,47.58
2024-05-09T07:58:18.106Z,47.60
2024-05-09T07:59:18.088Z,47.55
2024-05-09T08:00:23.770Z,47.56
2024-05-09T08:01:19.359Z,47.50
2024-05-09T08:02:18.217Z,47.46
2024-05-09T08:03:18.250Z,47.46
2024-05-09T08:04:18.234Z,47.41
2024-05-09T08:05:18.151Z,47.36
2024-05-09T08:06:18.149Z,47.32
2024-05-09T08:07:18.117Z,47.26
2024-05-09T08:08:18.143Z,47.30
2024-05-09T08:09:21.135Z,47.40
2024-05-09T08:10:22.187Z,47.53
2024-05-09T08:11:19.124Z,47.58
2024-05-09T08:12:18.108Z,47.59
2024-05-09T08:13:18.192Z,47.62
2024-05-09T08:14:18.085Z,47.62
2024-05-09T08:15:18.077Z,47.68
2024-05-09T08:16:18.182Z,47.72
2024-05-09T08:17:18.170Z,47.79
2024-05-09T08:18:18.317Z,47.75
2024-05-09T08:19:18.170Z,47.78
2024-05-09T08:20:26.667Z,47.80
2024-05-09T08:21:19.144Z,47.89
2024-05-09T08:22:18.130Z,47.89
2024-05-09T08:23:18.241Z,47.85
2024-05-09T08:24:18.132Z,47.80
2024-05-09T08:25:18.409Z,47.59
2024-05-09T08:26:18.126Z,47.83
2024-05-09T08:27:18.158Z,47.53
2024-05-09T08:28:18.224Z,47.36
2024-05-09T08:29:18.122Z,47.10
2024-05-09T08:30:24.774Z,47.20
2024-05-09T08:31:19.252Z,47.43
2024-05-09T08:32:18.186Z,47.44
2024-05-09T08:33:18.332Z,47.49
2024-05-09T08:34:18.222Z,47.59
2024-05-09T08:35:18.167Z,47.70
2024-05-09T08:36:18.179Z,47.74
2024-05-09T08:37:22.478Z,47.77
2024-05-09T08:38:19.159Z,47.78
2024-05-09T08:39:18.154Z,47.83
2024-05-09T08:40:24.198Z,47.83
2024-05-09T08:41:19.145Z,47.84
2024-05-09T08:42:18.188Z,47.78
2024-05-09T08:43:18.180Z,47.81
2024-05-09T08:44:18.151Z,47.85
2024-05-09T08:45:18.141Z,47.86
2024-05-09T08:46:18.198Z,47.84
2024-05-09T08:47:18.194Z,47.86
2024-05-09T08:48:18.621Z,47.76
2024-05-09T08:49:18.225Z,47.81
2024-05-09T08:50:28.884Z,47.64
2024-05-09T08:51:19.292Z,47.78
2024-05-09T08:52:18.283Z,47.78
2024-05-09T08:53:18.255Z,47.68
2024-05-09T08:54:18.261Z,47.69
2024-05-09T08:55:18.267Z,47.78
2024-05-09T08:56:18.252Z,47.66
2024-05-09T08:57:18.250Z,47.67
2024-05-09T08:58:18.405Z,47.63
2024-05-09T08:59:18.232Z,47.59
2024-05-09T09:00:29.234Z,47.60
2024-05-09T09:01:19.348Z,47.57
2024-05-09T09:02:18.414Z,47.46
2024-05-09T09:03:18.555Z,47.46
2024-05-09T09:04:18.386Z,47.42
2024-05-09T09:05:18.394Z,47.36
2024-05-09T09:06:18.323Z,47.30
2024-05-09T09:07:18.290Z,47.29
2024-05-09T09:08:18.289Z,47.21
2024-05-09T09:09:18.279Z,47.15
2024-05-09T09:10:25.426Z,46.92
2024-05-09T09:11:19.282Z,46.76
2024-05-09T09:12:18.248Z,46.67
2024-05-09T09:13:18.299Z,46.62
2024-05-09T09:14:18.280Z,46.47
2024-05-09T09:15:18.250Z,46.51
2024-05-09T09:16:18.324Z,46.61
2024-05-09T09:17:18.295Z,46.71
2024-05-09T09:18:18.509Z,46.75
2024-05-09T09:19:18.466Z,46.80
2024-05-09T09:20:23.339Z,46.85
2024-05-09T09:21:19.285Z,46.89
2024-05-09T09:22:18.307Z,46.96
2024-05-09T09:23:18.260Z,47.00
2024-05-09T09:24:18.291Z,47.00
2024-05-09T09:25:18.297Z,47.10
2024-05-09T09:26:18.323Z,47.15
2024-05-09T09:27:18.274Z,47.22
2024-05-09T09:28:18.343Z,47.29
2024-05-09T09:29:18.270Z,47.35
2024-05-09T09:30:27.652Z,47.33
2024-05-09T09:31:19.371Z,47.37
2024-05-09T09:32:18.333Z,47.38
2024-05-09T09:33:18.439Z,47.42
2024-05-09T09:34:18.450Z,47.43
2024-05-09T09:35:18.282Z,47.42
2024-05-09T09:36:18.296Z,47.44
2024-05-09T09:37:18.320Z,47.45
2024-05-09T09:38:18.338Z,47.46
2024-05-09T09:39:18.274Z,47.47
2024-05-09T09:40:18.499Z,47.48
2024-05-09T09:41:18.299Z,47.50
2024-05-09T09:42:18.346Z,47.52
2024-05-09T09:43:18.352Z,47.51
2024-05-09T09:44:18.405Z,47.52
2024-05-09T09:45:18.466Z,47.53
2024-05-09T09:46:18.528Z,47.59
2024-05-09T09:47:18.601Z,47.63
2024-05-09T09:48:18.703Z,47.66
2024-05-09T09:49:18.792Z,47.75
2024-05-09T09:50:24.091Z,47.79
2024-05-09T09:51:19.792Z,47.77
2024-05-09T09:52:18.753Z,47.71
2024-05-09T09:53:18.717Z,47.74
2024-05-09T09:54:18.694Z,47.73
2024-05-09T09:55:18.764Z,47.72
2024-05-09T09:56:18.693Z,47.65
2024-05-09T09:57:18.706Z,47.65
2024-05-09T09:58:18.812Z,47.65
2024-05-09T09:59:18.693Z,47.74
2024-05-09T10:00:24.507Z,47.78
2024-05-09T10:01:19.847Z,47.83
2024-05-09T10:02:18.935Z,47.88
2024-05-09T10:03:19.136Z,47.86
2024-05-09T10:04:18.798Z,47.93
2024-05-09T10:05:18.807Z,47.92
2024-05-09T10:06:18.704Z,48.01
2024-05-09T10:07:18.757Z,48.11
2024-05-09T10:08:18.741Z,48.16
2024-05-09T10:09:18.695Z,48.17
2024-05-09T10:10:26.891Z,48.23
2024-05-09T10:11:19.879Z,48.24
2024-05-09T10:12:18.821Z,48.21
2024-05-09T10:13:18.869Z,48.17
2024-05-09T10:14:18.764Z,48.26
2024-05-09T10:15:18.759Z,48.32
2024-05-09T10:16:18.886Z,48.29
2024-05-09T10:17:18.878Z,48.31
2024-05-09T10:18:18.923Z,48.29
2024-05-09T10:19:19.056Z,48.32
2024-05-09T10:20:24.667Z,48.27
2024-05-09T10:21:19.935Z,48.33
2024-05-09T10:22:18.923Z,48.41
2024-05-09T10:23:18.879Z,48.34
2024-05-09T10:24:18.887Z,48.29
2024-05-09T10:25:18.980Z,48.23
2024-05-09T10:26:18.934Z,48.23
2024-05-09T10:27:18.897Z,48.17
2024-05-09T10:28:18.993Z,48.19
2024-05-09T10:29:18.901Z,48.16
2024-05-09T10:30:26.092Z,48.22
2024-05-09T10:31:20.001Z,48.21
2024-05-09T10:32:19.106Z,48.15
2024-05-09T10:33:19.063Z,48.20
2024-05-09T10:34:19.414Z,48.18
2024-05-09T10:35:18.961Z,48.11
2024-05-09T10:36:18.958Z,48.09
2024-05-09T10:37:19.043Z,48.05
2024-05-09T10:38:18.953Z,47.97
2024-05-09T10:39:18.999Z,47.89
2024-05-09T10:40:26.078Z,47.86
2024-05-09T10:41:20.042Z,47.85
2024-05-09T10:42:19.038Z,47.92
2024-05-09T10:43:19.076Z,48.02
2024-05-09T10:44:19.018Z,48.03
2024-05-09T10:45:19.036Z,48.12
2024-05-09T10:46:19.674Z,48.11
2024-05-09T10:47:19.130Z,48.06
2024-05-09T10:48:19.173Z,48.11
2024-05-09T10:49:19.187Z,48.24
2024-05-09T10:50:25.683Z,48.27
2024-05-09T10:51:20.119Z,48.31
2024-05-09T10:52:19.161Z,48.37
2024-05-09T10:53:19.057Z,48.45
2024-05-09T10:54:19.095Z,48.42
2024-05-09T10:55:19.256Z,48.48
2024-05-09T10:56:19.092Z,48.55
2024-05-09T10:57:19.070Z,48.61
2024-05-09T10:58:19.153Z,48.57
2024-05-09T10:59:19.125Z,48.63
2024-05-09T11:00:27.450Z,48.65
2024-05-09T11:01:20.318Z,48.59
2024-05-09T11:02:19.432Z,48.63
2024-05-09T11:03:19.224Z,48.69
2024-05-09T11:04:19.383Z,48.65
2024-05-09T11:05:19.609Z,48.66
2024-05-09T11:06:19.199Z,48.62
2024-05-09T11:07:19.304Z,48.62
2024-05-09T11:08:19.205Z,48.60
2024-05-09T11:09:19.275Z,48.56
2024-05-09T11:10:27.312Z,48.58
2024-05-09T11:11:20.402Z,48.60
2024-05-09T11:12:21.320Z,48.53
2024-05-09T11:13:19.438Z,48.51
2024-05-09T11:14:19.346Z,48.47
2024-05-09T11:15:19.329Z,48.45
2024-05-09T11:16:19.777Z,48.49
2024-05-09T11:17:19.382Z,48.50
2024-05-09T11:18:20.981Z,48.41
2024-05-09T11:19:19.830Z,48.37
2024-05-09T11:20:26.803Z,48.35
2024-05-09T11:21:20.340Z,48.31
2024-05-09T11:22:19.442Z,48.24
2024-05-09T11:23:19.371Z,48.25
2024-05-09T11:24:19.344Z,48.19
2024-05-09T11:25:19.561Z,48.15
2024-05-09T11:26:19.346Z,48.09
2024-05-09T11:27:19.430Z,48.16
2024-05-09T11:28:19.433Z,48.17
2024-05-09T11:29:19.814Z,48.22
2024-05-09T11:31:19.692Z,48.36
2024-05-09T11:32:19.384Z,48.40
2024-05-09T11:33:19.620Z,48.44
2024-05-09T11:34:19.423Z,48.45
2024-05-09T11:35:19.340Z,48.51
2024-05-09T11:36:19.372Z,48.64
2024-05-09T11:37:19.462Z,48.57
2024-05-09T11:38:19.395Z,48.62
2024-05-09T11:39:19.378Z,48.62
2024-05-09T11:40:25.336Z,48.63
2024-05-09T11:41:20.368Z,48.72
2024-05-09T11:42:19.382Z,48.69
2024-05-09T11:43:19.581Z,48.67
2024-05-09T11:44:19.376Z,48.69
2024-05-09T11:45:19.381Z,48.71
2024-05-09T11:46:19.459Z,48.64
2024-05-09T11:47:19.428Z,48.66
2024-05-09T11:48:19.706Z,48.62
2024-05-09T11:49:19.494Z,48.63
2024-05-09T11:50:27.015Z,48.57
2024-05-09T11:51:20.381Z,48.49
2024-05-09T11:52:19.427Z,48.55
2024-05-09T11:53:19.426Z,48.57
2024-05-09T11:54:19.407Z,48.54
2024-05-09T11:55:19.534Z,48.46
2024-05-09T11:56:19.379Z,48.48
2024-05-09T11:57:19.425Z,48.42
2024-05-09T11:58:19.655Z,48.38
2024-05-09T11:59:19.429Z,48.38
2024-05-09T12:00:29.138Z,48.37
2024-05-09T12:01:22.018Z,48.40
2024-05-09T12:02:19.573Z,48.33
2024-05-09T12:03:19.545Z,48.21
2024-05-09T12:04:19.557Z,48.13
2024-05-09T12:05:19.722Z,48.07
2024-05-09T12:06:19.406Z,48.04
2024-05-09T12:07:19.458Z,48.11
2024-05-09T12:08:19.436Z,48.19
2024-05-09T12:09:19.417Z,48.19
2024-05-09T12:10:22.559Z,48.20
2024-05-09T12:11:20.445Z,48.24
2024-05-09T12:12:19.432Z,48.24
2024-05-09T12:13:19.549Z,48.28
2024-05-09T12:14:19.423Z,48.26
2024-05-09T12:15:19.441Z,48.28
2024-05-09T12:16:19.722Z,48.32
2024-05-09T12:17:19.517Z,48.39
2024-05-09T12:18:19.475Z,48.38
2024-05-09T12:19:19.483Z,48.41
2024-05-09T12:20:28.316Z,48.54
2024-05-09T12:21:20.431Z,48.48
2024-05-09T12:22:19.621Z,48.55
2024-05-09T12:23:19.484Z,48.59
2024-05-09T12:24:19.490Z,48.60
2024-05-09T12:25:19.538Z,48.58
2024-05-09T12:26:19.442Z,48.65
2024-05-09T12:27:19.443Z,48.65
2024-05-09T12:28:19.680Z,48.61
2024-05-09T12:29:19.446Z,48.64
2024-05-09T12:30:32.140Z,48.60
2024-05-09T12:31:20.484Z,48.63
2024-05-09T12:32:19.486Z,48.62
2024-05-09T12:33:19.581Z,48.48
2024-05-09T12:34:19.525Z,48.41
2024-05-09T12:35:19.460Z,48.34
2024-05-09T12:36:19.480Z,48.35
2024-05-09T12:37:19.538Z,48.18
2024-05-09T12:38:19.483Z,48.12
2024-05-09T12:39:19.485Z,48.08
2024-05-09T12:40:30.633Z,48.08
2024-05-09T12:41:20.512Z,48.08
2024-05-09T12:42:27.127Z,48.15
2024-05-09T12:43:20.618Z,48.15
2024-05-09T12:44:19.564Z,48.19
2024-05-09T12:45:19.568Z,48.18
2024-05-09T12:46:19.670Z,48.29
2024-05-09T12:47:19.580Z,48.23
2024-05-09T12:48:19.654Z,48.27
2024-05-09T12:49:20.260Z,48.30
2024-05-09T12:50:28.951Z,48.35
2024-05-09T12:51:20.536Z,48.48
2024-05-09T12:52:19.613Z,48.40
2024-05-09T12:53:19.590Z,48.45
2024-05-09T12:54:19.554Z,48.37
2024-05-09T12:55:19.582Z,48.40
2024-05-09T12:56:19.551Z,48.40
2024-05-09T12:57:20.468Z,48.47
2024-05-09T12:58:19.839Z,48.57